Northlake, Illinois
Current Conditions -  °F | °C
As of 9:51 PM on Sunday 25 Jan 2015 (Local Time) from KORD Reporting Station
Scattered Clouds Scattered Clouds  
Wind Chill: 13°   Ceiling: Unl
Heat Index: 24°   Visibility: 10mi
Dew Point: 15°   Wind: 12mph
Humidity: 69%   Direction: 50°NE
Pressure: 29.98"   Gusts: NA
Location:  41.91°N, 87.9°W
Report Text: KORD 260351Z 05010KT 10SM SCT027 M04/M09 A2998 RMK AO2 SLP161 T10441094
Loading
Personal Weather Stations






























Interactive Weather Map New forecast layout! Learn more

10-Day Weather Forecast

Advertisements
Track Severe Weather on mobile